Aviation Digital Data Service (ADDS)

Output produced by METARs form (2113 UTC 16 February 2019)
found at http://www.aviationweather.gov/metar/data/
 
Forecast for: NZAA (AUCKLAND INTL AR, NZ)
Text: TAF NZAA 161706Z 1618/1718 VRB02KT 9999 SCT025
Forecast period: 1800 to 2200 UTC 16 February 2019
Forecast type: FROM: standard forecast or significant change
Winds: variable direction winds at 2 MPH (2 knots; 1.0 m/s)
Visibility: 6 or more miles 10+ km)
Ceiling: at least 12,000 feet AGL
Clouds: scattered clouds at 2500 feet AGL
Weather: no significant weather forecast for this period
Text: BECMG 1622/1700 03010KT
Forecast period: 2200 UTC 16 February 2019 to 0800 UTC 17 February 2019
Forecast type: BECOMING: Conditions expected to become as follows by 0000 UTC 17 February 2019
Winds: from the NNE (30 degrees) at 12 MPH (10 knots; 5.1 m/s)
Visibility: 6 or more miles 10+ km)
Ceiling: at least 12,000 feet AGL
Clouds: scattered clouds at 2500 feet AGL
Weather: no significant weather forecast for this period
Text: BECMG 1708/1710 VRB02KT
Forecast period: 0800 to 1800 UTC 17 February 2019
Forecast type: BECOMING: Conditions expected to become as follows by 1000 UTC 17 February 2019
Winds: variable direction winds at 2 MPH (2 knots; 1.0 m/s)
Visibility: 6 or more miles 10+ km)
Ceiling: at least 12,000 feet AGL
Clouds: scattered clouds at 2500 feet AGL
Weather: no significant weather forecast for this period